FSBRASIL

...



 INFORMAÇÕES METEOROLÓGICAS
METAR FOR SBRB
ADDS - METARS form results

(2125 UTC 22 October 2020)
Data provider http://aviationweather.gov/metar/data/
 
METAR text: SBRB 222100Z 26007KT 210V300 CAVOK 31/24 Q1010
Conditions at: SBRB (RIO BRANCO/MEDIC, BR) observed 2100 UTC 22 October 2020
Temperature: 31.0°C (88°F)
Dewpoint: 24.0°C (75°F) [RH = 66%]
Pressure (altimeter): 29.82 inches Hg (1010.0 mb)
Winds: from the W (260 degrees) at 8 MPH (7 knots; 3.6 m/s)
Visibility: 6 or more miles (10+ km)
Ceiling: ceiling and visibility are OK
Clouds: unknown
Weather: no significant weather observed at this time

Forecast for: SBRB (RIO BRANCO/MEDIC, BR)
Text: TAF SBRB 222100Z 2300/2312 13005KT 9999 SCT015 TN23/2308Z TX26/2312Z
Forecast period: 0000 to 0300 UTC 23 October 2020
Forecast type: FROM: standard forecast or significant change
Winds: from the SE (130 degrees) at 6 MPH (5 knots; 2.6 m/s)
Visibility: 6 or more miles (10+ km)
Ceiling: at least 12,000 feet AGL
Clouds: scattered clouds at 1500 feet AGL
Weather: no significant weather forecast for this period
Text: BECMG 2303/2305 33005KT CAVOK RMK PGY
Forecast period: 0300 to 1200 UTC 23 October 2020
Forecast type: BECOMING: Conditions expected to become as follows by 0500 UTC 23 October 2020
Winds: from the NNW (330 degrees) at 6 MPH (5 knots; 2.6 m/s)
Visibility: 6 or more miles (10+ km)
Ceiling: unknown
Clouds: missing
Weather: NSW  (no significant weather)

 MAPA DO AEROPORTO

 INFORMAÇÕES DA PISTA